Time;durP1;ratioP1;P1;durP2;ratioP2;P2;SDS_P1;SDS_P2;PMS_P1;PMS_P2;Temp;Humidity;BMP_temperature;BMP_pressure;BME280_temperature;BME280_humidity;BME280_pressure;Samples;Min_cycle;Max_cycle;Signal;HPM_P1;HPM_P2
2022/01/30 00:00:23;;;;;;;25.98;5.88;;;;;;;;;;6221604;22;20020;-84
2022/01/30 00:02:49;;;;;;;15.02;3.60;;;;;;;;;;6219938;22;20020;-84
2022/01/30 00:05:14;;;;;;;16.52;3.10;;;;;;;;;;6220605;22;20253;-84
2022/01/30 00:07:40;;;;;;;16.65;2.95;;;;;;;;;;6221524;22;20020;-84
2022/01/30 00:10:10;;;;;;;19.38;3.45;;;;;;;;;;6220627;22;20515;-84
2022/01/30 00:12:45;;;;;;;22.02;3.50;;;;;;;;;;6221644;22;20012;-84
2022/01/30 00:15:12;;;;;;;19.58;4.35;;;;;;;;;;6222728;22;20353;-84
2022/01/30 00:17:44;;;;;;;14.60;2.80;;;;;;;;;;6221551;22;20022;-84
2022/01/30 00:20:17;;;;;;;26.15;4.40;;;;;;;;;;6222677;22;20065;-84
2022/01/30 00:25:51;;;;;;;18.60;3.22;;;;;;;;;;6130727;23;20017;-84
2022/01/30 00:28:19;;;;;;;17.10;3.20;;;;;;;;;;6201244;22;20457;-84
2022/01/30 00:30:45;;;;;;;13.65;3.47;;;;;;;;;;6220611;22;20561;-84
2022/01/30 00:33:11;;;;;;;16.10;3.20;;;;;;;;;;6220153;22;20027;-84
2022/01/30 00:35:37;;;;;;;17.40;2.80;;;;;;;;;;6219624;22;20550;-84
2022/01/30 00:38:03;;;;;;;12.05;2.55;;;;;;;;;;6218642;22;20031;-84
2022/01/30 00:40:29;;;;;;;17.55;3.85;;;;;;;;;;6220917;22;20044;-84
2022/01/30 00:42:55;;;;;;;19.90;3.17;;;;;;;;;;6218377;22;20019;-84
2022/01/30 00:45:20;;;;;;;17.63;4.72;;;;;;;;;;6220425;22;20023;-84
2022/01/30 00:47:46;;;;;;;19.85;3.60;;;;;;;;;;6220019;22;20027;-84
2022/01/30 00:50:12;;;;;;;15.75;2.83;;;;;;;;;;6220235;22;20473;-83
2022/01/30 00:52:38;;;;;;;15.48;3.10;;;;;;;;;;6245000;22;20039;-84
2022/01/30 00:55:04;;;;;;;15.43;3.38;;;;;;;;;;6220058;22;20160;-83
2022/01/30 00:57:30;;;;;;;11.63;3.03;;;;;;;;;;6219515;22;20019;-84
2022/01/30 00:59:56;;;;;;;15.10;2.83;;;;;;;;;;6244545;22;20512;-83
2022/01/30 01:02:21;;;;;;;15.30;3.50;;;;;;;;;;6219381;22;20024;-83
2022/01/30 01:04:48;;;;;;;13.13;2.78;;;;;;;;;;6244203;22;20397;-84
2022/01/30 01:07:22;;;;;;;13.50;3.17;;;;;;;;;;6219584;22;20034;-84
2022/01/30 01:09:58;;;;;;;21.98;3.03;;;;;;;;;;6244207;22;20020;-83
2022/01/30 01:12:47;;;;;;;15.75;2.80;;;;;;;;;;6221356;22;20487;-84
2022/01/30 01:23:31;;;;;;;15.23;3.00;;;;;;;;;;6250319;22;20022;-84
2022/01/30 01:25:58;;;;;;;15.77;2.95;;;;;;;;;;6221517;22;20077;-84
2022/01/30 01:28:24;;;;;;;21.67;4.25;;;;;;;;;;6218683;22;20020;-84
2022/01/30 01:30:50;;;;;;;15.35;3.05;;;;;;;;;;6218396;22;20022;-84
2022/01/30 01:33:17;;;;;;;17.45;3.67;;;;;;;;;;6220094;22;20016;-84
2022/01/30 01:35:43;;;;;;;18.13;3.15;;;;;;;;;;6245078;22;20093;-84
2022/01/30 01:38:13;;;;;;;12.27;4.13;;;;;;;;;;6245445;22;20020;-84
2022/01/30 01:40:41;;;;;;;14.77;3.08;;;;;;;;;;6221237;22;20089;-84
2022/01/30 01:43:07;;;;;;;16.30;3.08;;;;;;;;;;6219671;22;20012;-84
2022/01/30 01:45:36;;;;;;;13.10;2.67;;;;;;;;;;6244298;22;20122;-84
2022/01/30 01:48:09;;;;;;;15.07;2.97;;;;;;;;;;6246341;22;20022;-84
2022/01/30 01:50:39;;;;;;;16.25;3.65;;;;;;;;;;6246257;22;20019;-84
2022/01/30 01:53:08;;;;;;;18.00;3.70;;;;;;;;;;6220675;22;20054;-83
2022/01/30 01:55:34;;;;;;;13.85;3.05;;;;;;;;;;6219001;22;20536;-84
2022/01/30 01:58:00;;;;;;;16.38;2.65;;;;;;;;;;6220237;22;20037;-84
2022/01/30 02:00:25;;;;;;;14.90;2.35;;;;;;;;;;6244293;22;20015;-84
2022/01/30 02:02:53;;;;;;;16.75;3.67;;;;;;;;;;6219981;22;20028;-84
2022/01/30 02:05:19;;;;;;;15.13;2.90;;;;;;;;;;6220268;22;20357;-84
2022/01/30 02:10:33;;;;;;;12.63;2.67;;;;;;;;;;6246990;22;20024;-84
2022/01/30 02:13:14;;;;;;;13.07;3.20;;;;;;;;;;6221765;22;20412;-83
2022/01/30 02:24:06;;;;;;;16.80;3.08;;;;;;;;;;6251685;22;20352;-83
2022/01/30 02:26:36;;;;;;;14.82;3.88;;;;;;;;;;6247054;22;20015;-84
2022/01/30 02:29:02;;;;;;;13.38;2.40;;;;;;;;;;6221049;22;20026;-83
2022/01/30 02:31:28;;;;;;;20.48;3.38;;;;;;;;;;6221820;22;20063;-84
2022/01/30 02:33:54;;;;;;;12.35;2.60;;;;;;;;;;6247452;22;20078;-83
2022/01/30 02:36:19;;;;;;;15.05;2.22;;;;;;;;;;6222697;22;20016;-83
2022/01/30 02:38:45;;;;;;;14.68;2.97;;;;;;;;;;6221648;22;20026;-84
2022/01/30 02:41:11;;;;;;;11.30;3.15;;;;;;;;;;6245564;22;20062;-83
2022/01/30 02:43:47;;;;;;;14.60;2.80;;;;;;;;;;6244950;22;20015;-83
2022/01/30 02:46:25;;;;;;;;;;;;;;;;;;6248148;22;20024;-84
2022/01/30 02:48:56;;;;;;;14.25;2.35;;;;;;;;;;6247823;22;20323;-84
2022/01/30 02:51:22;;;;;;;17.13;3.78;;;;;;;;;;6247492;22;20031;-83
2022/01/30 02:54:02;;;;;;;12.75;2.95;;;;;;;;;;6221660;22;20326;-83
2022/01/30 02:56:28;;;;;;;17.05;3.17;;;;;;;;;;6250761;22;20464;-83
2022/01/30 02:58:54;;;;;;;15.77;3.38;;;;;;;;;;6245717;22;20035;-83
2022/01/30 03:01:19;;;;;;;21.73;2.97;;;;;;;;;;6220419;22;20069;-84
2022/01/30 03:03:45;;;;;;;23.90;3.30;;;;;;;;;;6245934;22;20457;-84
2022/01/30 03:06:11;;;;;;;17.25;3.08;;;;;;;;;;6221271;22;20081;-84
2022/01/30 03:08:37;;;;;;;21.00;3.75;;;;;;;;;;6245396;22;20011;-83
2022/01/30 03:11:03;;;;;;;12.95;2.72;;;;;;;;;;6220706;22;20023;-83
2022/01/30 03:13:29;;;;;;;15.93;3.70;;;;;;;;;;6221002;22;20087;-83
2022/01/30 03:15:56;;;;;;;13.55;2.75;;;;;;;;;;6246032;22;20328;-84
2022/01/30 03:18:21;;;;;;;17.88;3.22;;;;;;;;;;6221284;22;20024;-84
2022/01/30 03:20:48;;;;;;;16.10;2.70;;;;;;;;;;6245087;22;20480;-84
2022/01/30 03:23:14;;;;;;;20.27;3.67;;;;;;;;;;6245987;22;20035;-84
2022/01/30 03:25:40;;;;;;;15.82;2.70;;;;;;;;;;6220659;22;20019;-83
2022/01/30 03:28:05;;;;;;;22.55;3.83;;;;;;;;;;6220940;22;20071;-84
2022/01/30 03:30:32;;;;;;;14.82;2.97;;;;;;;;;;6221759;22;20016;-83
2022/01/30 03:32:58;;;;;;;18.45;4.05;;;;;;;;;;6220088;22;20456;-83
2022/01/30 03:35:24;;;;;;;18.85;4.50;;;;;;;;;;6221021;22;20027;-82
2022/01/30 03:37:50;;;;;;;14.77;2.67;;;;;;;;;;6220962;22;20028;-82
2022/01/30 03:40:16;;;;;;;12.48;2.85;;;;;;;;;;6220830;22;20264;-82
2022/01/30 03:42:42;;;;;;;14.50;3.42;;;;;;;;;;6219913;22;20357;-82
2022/01/30 03:45:08;;;;;;;18.02;3.50;;;;;;;;;;6219824;22;20457;-82
2022/01/30 03:47:33;;;;;;;18.95;5.05;;;;;;;;;;6220625;22;20094;-82
2022/01/30 03:49:59;;;;;;;18.98;3.38;;;;;;;;;;6247271;22;20024;-82
2022/01/30 03:52:25;;;;;;;17.25;3.28;;;;;;;;;;6224025;22;20020;-83
2022/01/30 03:54:50;;;;;;;18.48;3.13;;;;;;;;;;6226286;22;20038;-84
2022/01/30 03:57:16;;;;;;;12.98;3.13;;;;;;;;;;6227540;22;20031;-83
2022/01/30 03:59:42;;;;;;;16.00;3.00;;;;;;;;;;6252962;22;20019;-83
2022/01/30 04:02:07;;;;;;;20.77;3.50;;;;;;;;;;6227543;22;20016;-83
2022/01/30 04:04:33;;;;;;;14.68;3.30;;;;;;;;;;6227887;22;20016;-83
2022/01/30 04:07:00;;;;;;;24.50;4.13;;;;;;;;;;6228536;22;20027;-83
2022/01/30 04:09:27;;;;;;;16.35;3.65;;;;;;;;;;6227379;22;20087;-83
2022/01/30 04:11:54;;;;;;;18.98;3.38;;;;;;;;;;6225187;22;20039;-83
2022/01/30 04:14:20;;;;;;;17.30;2.53;;;;;;;;;;6228121;22;20024;-83
2022/01/30 04:16:46;;;;;;;15.68;3.05;;;;;;;;;;6227011;22;20016;-84
2022/01/30 04:19:12;;;;;;;14.95;3.05;;;;;;;;;;6225978;22;20019;-83
2022/01/30 04:21:38;;;;;;;14.77;2.78;;;;;;;;;;6227239;22;20012;-84
2022/01/30 04:24:04;;;;;;;14.43;2.75;;;;;;;;;;6226826;22;20047;-83
2022/01/30 04:26:30;;;;;;;10.68;2.72;;;;;;;;;;6227488;22;20087;-83
2022/01/30 04:28:56;;;;;;;13.52;2.85;;;;;;;;;;6226595;22;20063;-83
2022/01/30 04:31:22;;;;;;;15.65;3.03;;;;;;;;;;6226706;22;20109;-83
2022/01/30 04:33:48;;;;;;;15.98;2.60;;;;;;;;;;6226867;22;20015;-83
2022/01/30 04:36:20;;;;;;;18.42;2.90;;;;;;;;;;6225724;22;20106;-83
2022/01/30 04:39:15;;;;;;;17.85;3.60;;;;;;;;;;6252240;22;20007;-84
2022/01/30 04:42:08;;;;;;;16.83;3.25;;;;;;;;;;6232707;22;20027;-84
2022/01/30 04:53:13;;;;;;;14.40;2.70;;;;;;;;;;6257598;22;20035;-84
2022/01/30 04:56:27;;;;;;;11.68;2.17;;;;;;;;;;6231854;22;20087;-84
2022/01/30 04:58:53;;;;;;;10.27;2.40;;;;;;;;;;6258893;22;20016;-83
2022/01/30 05:01:37;;;;;;;10.15;2.13;;;;;;;;;;6230949;22;20020;-83
2022/01/30 05:04:22;;;;;;;14.20;2.30;;;;;;;;;;6230867;22;20715;-83
2022/01/30 05:09:27;;;;;;;13.43;2.92;;;;;;;;;;6255757;22;20263;-83
2022/01/30 05:11:53;;;;;;;11.07;2.50;;;;;;;;;;6226605;22;20094;-83
2022/01/30 05:14:24;;;;;;;14.20;3.05;;;;;;;;;;6227432;22;20021;-83
2022/01/30 05:16:50;;;;;;;12.43;3.13;;;;;;;;;;6228025;22;20067;-83
2022/01/30 05:19:16;;;;;;;11.45;2.47;;;;;;;;;;6226856;22;20095;-83
2022/01/30 05:21:42;;;;;;;14.48;3.83;;;;;;;;;;6224680;22;20087;-83
2022/01/30 05:24:09;;;;;;;13.15;2.63;;;;;;;;;;6227108;22;20011;-83
2022/01/30 05:26:39;;;;;;;12.52;3.28;;;;;;;;;;6250047;22;20043;-83
2022/01/30 05:29:05;;;;;;;14.57;3.22;;;;;;;;;;6226520;22;20067;-84
2022/01/30 05:31:30;;;;;;;17.48;2.95;;;;;;;;;;6226852;22;20023;-83
2022/01/30 05:33:57;;;;;;;16.08;2.92;;;;;;;;;;6252025;22;20537;-83
2022/01/30 05:36:23;;;;;;;11.68;2.60;;;;;;;;;;6227142;22;20068;-84
2022/01/30 05:38:49;;;;;;;12.55;2.45;;;;;;;;;;6227847;22;20016;-84
2022/01/30 05:41:15;;;;;;;15.23;2.65;;;;;;;;;;6225936;22;20121;-83
2022/01/30 05:43:41;;;;;;;14.35;2.72;;;;;;;;;;6228346;22;20018;-86
2022/01/30 05:46:15;;;;;;;11.93;2.88;;;;;;;;;;6225776;22;20442;-84
2022/01/30 05:48:41;;;;;;;12.73;3.20;;;;;;;;;;6227937;22;20020;-84
2022/01/30 05:51:07;;;;;;;17.83;3.72;;;;;;;;;;6225318;22;20042;-83
2022/01/30 05:53:33;;;;;;;11.30;2.67;;;;;;;;;;6226909;22;20103;-83
2022/01/30 05:55:58;;;;;;;11.70;3.10;;;;;;;;;;6226318;22;20066;-83
2022/01/30 05:58:24;;;;;;;9.18;2.22;;;;;;;;;;6225535;22;20011;-85
2022/01/30 06:00:50;;;;;;;12.15;2.33;;;;;;;;;;6226005;22;20330;-83
2022/01/30 06:03:16;;;;;;;17.02;2.92;;;;;;;;;;6225730;22;20076;-83
2022/01/30 06:05:45;;;;;;;17.98;3.22;;;;;;;;;;6252077;22;20011;-83
2022/01/30 06:08:26;;;;;;;14.13;3.10;;;;;;;;;;6227611;22;20024;-83
2022/01/30 06:10:52;;;;;;;15.80;3.17;;;;;;;;;;6251539;22;20042;-83
2022/01/30 06:13:18;;;;;;;16.70;3.28;;;;;;;;;;6251316;22;20020;-83
2022/01/30 06:15:43;;;;;;;11.27;2.92;;;;;;;;;;6251007;22;20190;-83
2022/01/30 06:18:09;;;;;;;20.50;4.35;;;;;;;;;;6252050;22;20024;-83
2022/01/30 06:20:35;;;;;;;19.35;3.47;;;;;;;;;;6253048;22;20019;-86
2022/01/30 06:23:00;;;;;;;20.88;4.65;;;;;;;;;;6227927;22;20038;-85
2022/01/30 06:25:26;;;;;;;20.05;3.97;;;;;;;;;;6227193;22;20077;-85
2022/01/30 06:27:52;;;;;;;21.90;3.88;;;;;;;;;;6225864;22;20024;-86
2022/01/30 06:30:21;;;;;;;23.00;3.53;;;;;;;;;;6226724;22;20049;-83
2022/01/30 06:32:47;;;;;;;13.68;4.28;;;;;;;;;;6228413;22;20024;-83
2022/01/30 06:35:13;;;;;;;18.88;3.42;;;;;;;;;;6226373;22;20015;-84
2022/01/30 06:37:38;;;;;;;12.50;3.10;;;;;;;;;;6227064;22;20477;-84
2022/01/30 06:40:05;;;;;;;19.20;3.83;;;;;;;;;;6278614;22;20020;-85
2022/01/30 06:42:32;;;;;;;17.55;3.70;;;;;;;;;;6251374;22;20014;-83
2022/01/30 06:44:58;;;;;;;22.42;4.53;;;;;;;;;;6226435;22;20058;-84
2022/01/30 06:47:24;;;;;;;22.38;4.25;;;;;;;;;;6225752;22;20016;-83
2022/01/30 06:49:49;;;;;;;17.10;3.13;;;;;;;;;;6225762;22;20020;-84
2022/01/30 06:52:15;;;;;;;16.52;4.18;;;;;;;;;;6218514;22;20023;-81
2022/01/30 06:54:41;;;;;;;17.92;3.15;;;;;;;;;;6244667;22;20016;-81
2022/01/30 06:57:07;;;;;;;18.42;3.05;;;;;;;;;;6219332;22;20020;-81
2022/01/30 06:59:33;;;;;;;18.42;3.00;;;;;;;;;;6219362;22;20530;-81
2022/01/30 07:01:58;;;;;;;20.05;3.45;;;;;;;;;;6219680;22;20082;-81
2022/01/30 07:04:24;;;;;;;19.42;4.40;;;;;;;;;;6219939;22;20575;-81
2022/01/30 07:06:50;;;;;;;14.18;3.17;;;;;;;;;;6220242;22;20016;-81
2022/01/30 07:09:16;;;;;;;17.00;3.60;;;;;;;;;;6222523;22;20027;-82
2022/01/30 07:11:42;;;;;;;16.15;3.65;;;;;;;;;;6222175;22;20016;-82
2022/01/30 07:14:08;;;;;;;17.30;3.17;;;;;;;;;;6246740;22;20335;-81
2022/01/30 07:16:34;;;;;;;15.48;3.70;;;;;;;;;;6222337;22;20081;-82
2022/01/30 07:18:59;;;;;;;18.40;4.32;;;;;;;;;;6247627;22;20529;-84
2022/01/30 07:21:25;;;;;;;15.85;3.45;;;;;;;;;;6221967;22;20404;-84
2022/01/30 07:23:51;;;;;;;22.23;3.72;;;;;;;;;;6247030;22;20015;-82
2022/01/30 07:26:17;;;;;;;23.33;3.83;;;;;;;;;;6246131;22;20047;-81
2022/01/30 07:28:42;;;;;;;17.83;3.72;;;;;;;;;;6220398;22;20020;-81
2022/01/30 07:31:08;;;;;;;20.13;3.85;;;;;;;;;;6221155;22;20147;-82
2022/01/30 07:33:35;;;;;;;16.00;3.42;;;;;;;;;;6219771;22;20484;-83
2022/01/30 07:36:02;;;;;;;22.55;4.10;;;;;;;;;;6245814;22;20019;-84
2022/01/30 07:38:28;;;;;;;19.27;4.50;;;;;;;;;;6246414;22;20024;-81
2022/01/30 07:40:53;;;;;;;20.95;4.65;;;;;;;;;;6244930;22;20077;-82
2022/01/30 07:43:19;;;;;;;20.80;4.95;;;;;;;;;;6219619;22;20024;-81
2022/01/30 07:45:45;;;;;;;22.27;4.35;;;;;;;;;;6219185;22;20356;-82
2022/01/30 07:48:11;;;;;;;13.02;4.18;;;;;;;;;;6218620;22;20040;-82
2022/01/30 07:50:37;;;;;;;16.92;4.45;;;;;;;;;;6218685;22;20546;-82
2022/01/30 07:53:02;;;;;;;16.13;3.63;;;;;;;;;;6246194;22;20045;-82
2022/01/30 07:55:28;;;;;;;18.17;3.97;;;;;;;;;;6246288;22;20023;-82
2022/01/30 07:57:55;;;;;;;14.48;3.03;;;;;;;;;;6246712;22;20020;-82
2022/01/30 08:00:20;;;;;;;10.50;2.80;;;;;;;;;;6245435;22;20023;-82
2022/01/30 08:02:47;;;;;;;28.77;4.18;;;;;;;;;;6220478;22;20053;-82
2022/01/30 08:05:13;;;;;;;17.23;3.40;;;;;;;;;;6245170;22;20401;-84
2022/01/30 08:07:39;;;;;;;13.70;2.72;;;;;;;;;;6219910;22;20024;-84
2022/01/30 08:10:05;;;;;;;19.08;3.83;;;;;;;;;;6219981;22;20038;-81
2022/01/30 08:12:31;;;;;;;17.35;4.15;;;;;;;;;;6220243;22;20095;-82
2022/01/30 08:14:56;;;;;;;24.02;3.65;;;;;;;;;;6220380;22;20042;-84
2022/01/30 08:17:23;;;;;;;20.50;3.85;;;;;;;;;;6244770;22;20365;-82
2022/01/30 08:19:51;;;;;;;18.63;4.47;;;;;;;;;;6220264;22;20258;-82
2022/01/30 08:22:17;;;;;;;16.05;3.75;;;;;;;;;;6219674;22;20479;-82
2022/01/30 08:24:43;;;;;;;19.98;3.65;;;;;;;;;;6220060;22;20018;-82
2022/01/30 08:27:09;;;;;;;14.43;3.45;;;;;;;;;;6220028;22;20028;-82
2022/01/30 08:29:34;;;;;;;16.80;3.60;;;;;;;;;;6220400;22;20023;-82
2022/01/30 08:32:00;;;;;;;21.10;3.60;;;;;;;;;;6219132;22;20460;-82
2022/01/30 08:34:27;;;;;;;22.95;4.70;;;;;;;;;;6219718;22;20019;-82
2022/01/30 08:36:53;;;;;;;26.77;5.18;;;;;;;;;;6219582;22;20039;-82
2022/01/30 08:39:19;;;;;;;16.27;3.20;;;;;;;;;;6220104;22;20090;-82
2022/01/30 08:41:46;;;;;;;15.57;4.18;;;;;;;;;;6218586;22;20019;-82
2022/01/30 08:44:12;;;;;;;16.63;3.95;;;;;;;;;;6244321;22;20025;-82
2022/01/30 08:46:38;;;;;;;19.05;4.45;;;;;;;;;;6220158;22;20397;-82
2022/01/30 08:49:03;;;;;;;15.88;3.22;;;;;;;;;;6220219;22;20012;-82
2022/01/30 08:51:29;;;;;;;16.63;3.63;;;;;;;;;;6220865;22;20168;-82
2022/01/30 08:53:55;;;;;;;18.00;3.88;;;;;;;;;;6222168;22;20024;-82
2022/01/30 08:56:22;;;;;;;18.42;3.22;;;;;;;;;;6220652;22;20445;-82
2022/01/30 08:58:48;;;;;;;18.90;3.85;;;;;;;;;;6220681;22;20015;-82
2022/01/30 09:01:14;;;;;;;17.27;4.00;;;;;;;;;;6245075;22;20027;-82
2022/01/30 09:03:40;;;;;;;20.15;4.22;;;;;;;;;;6219829;22;20180;-82
2022/01/30 09:06:06;;;;;;;26.80;4.60;;;;;;;;;;6245688;22;20134;-83
2022/01/30 09:08:32;;;;;;;16.13;4.43;;;;;;;;;;6245505;22;20023;-82
2022/01/30 09:10:58;;;;;;;15.80;3.90;;;;;;;;;;6245594;22;20230;-83
2022/01/30 09:13:24;;;;;;;20.10;4.85;;;;;;;;;;6245612;22;20028;-83
2022/01/30 09:15:56;;;;;;;16.98;3.95;;;;;;;;;;6218878;22;20517;-82
2022/01/30 09:18:22;;;;;;;21.35;5.38;;;;;;;;;;6221576;22;20399;-83
2022/01/30 09:20:48;;;;;;;19.40;4.57;;;;;;;;;;6221329;22;20019;-83
2022/01/30 09:23:14;;;;;;;22.17;5.40;;;;;;;;;;6219528;22;20015;-82
2022/01/30 09:25:40;;;;;;;25.50;5.63;;;;;;;;;;6219480;22;20019;-83
2022/01/30 09:28:05;;;;;;;20.40;4.22;;;;;;;;;;6219280;22;20016;-82
2022/01/30 09:30:31;;;;;;;19.67;4.35;;;;;;;;;;6245774;22;20019;-83
2022/01/30 09:32:57;;;;;;;23.15;4.32;;;;;;;;;;6217834;22;20026;-83
2022/01/30 09:35:23;;;;;;;17.83;3.55;;;;;;;;;;6220426;22;20015;-83
2022/01/30 09:37:48;;;;;;;21.50;5.90;;;;;;;;;;6219515;22;20027;-83
2022/01/30 09:40:16;;;;;;;20.75;5.05;;;;;;;;;;6221214;22;20027;-83
2022/01/30 09:42:45;;;;;;;25.88;4.38;;;;;;;;;;6220910;22;20061;-83
2022/01/30 09:45:13;;;;;;;16.90;3.97;;;;;;;;;;6246060;22;20016;-83
2022/01/30 09:47:40;;;;;;;16.60;4.38;;;;;;;;;;6245451;22;20115;-82
2022/01/30 09:50:07;;;;;;;26.52;4.38;;;;;;;;;;6219472;22;20061;-82
2022/01/30 09:52:33;;;;;;;21.98;4.78;;;;;;;;;;6217976;22;20012;-82
2022/01/30 09:54:59;;;;;;;21.92;4.72;;;;;;;;;;6244175;22;20609;-81
2022/01/30 09:57:24;;;;;;;18.58;5.05;;;;;;;;;;6219331;22;20023;-82
2022/01/30 09:59:50;;;;;;;20.98;4.85;;;;;;;;;;6219896;22;20111;-83
2022/01/30 10:02:16;;;;;;;18.58;3.70;;;;;;;;;;6247323;22;20051;-83
2022/01/30 10:04:42;;;;;;;22.88;5.20;;;;;;;;;;6246343;22;20031;-83
2022/01/30 10:07:15;;;;;;;16.33;3.22;;;;;;;;;;6247595;22;20019;-82
2022/01/30 10:09:46;;;;;;;23.17;4.60;;;;;;;;;;6224387;22;20026;-81
2022/01/30 10:12:19;;;;;;;19.50;3.70;;;;;;;;;;6225288;22;20024;-82
2022/01/30 10:14:52;;;;;;;18.35;4.18;;;;;;;;;;6226154;22;20012;-82
2022/01/30 10:17:26;;;;;;;20.85;4.43;;;;;;;;;;6222200;22;20039;-82
2022/01/30 10:20:03;;;;;;;25.13;4.88;;;;;;;;;;6221216;22;20016;-82
2022/01/30 10:22:29;;;;;;;14.73;2.97;;;;;;;;;;6244525;22;20040;-82
2022/01/30 10:24:57;;;;;;;15.32;3.85;;;;;;;;;;6219619;22;20263;-83
2022/01/30 10:27:28;;;;;;;16.88;3.40;;;;;;;;;;6221030;22;20051;-83
2022/01/30 10:30:07;;;;;;;22.85;4.07;;;;;;;;;;6220948;22;20425;-82
2022/01/30 10:32:34;;;;;;;20.95;4.93;;;;;;;;;;6243775;22;20018;-83
2022/01/30 10:35:07;;;;;;;21.88;4.30;;;;;;;;;;6219441;22;20088;-83
2022/01/30 10:37:36;;;;;;;25.15;4.63;;;;;;;;;;6226007;22;20026;-84
2022/01/30 10:40:14;;;;;;;21.80;4.15;;;;;;;;;;6226349;22;20012;-83
2022/01/30 10:42:42;;;;;;;20.65;4.50;;;;;;;;;;6228399;22;20012;-84
2022/01/30 10:45:10;;;;;;;23.98;4.78;;;;;;;;;;6279107;22;20094;-83
2022/01/30 10:47:37;;;;;;;23.40;5.70;;;;;;;;;;6222960;22;20035;-83
2022/01/30 10:50:20;;;;;;;19.95;4.40;;;;;;;;;;6223492;22;20103;-84
2022/01/30 10:52:55;;;;;;;23.83;4.47;;;;;;;;;;6221522;22;20059;-83
2022/01/30 10:55:33;;;;;;;20.85;5.38;;;;;;;;;;6222044;22;20597;-83
2022/01/30 10:58:01;;;;;;;20.38;4.63;;;;;;;;;;6248639;22;20432;-83
2022/01/30 11:00:41;;;;;;;23.50;4.38;;;;;;;;;;6225602;22;20016;-83
2022/01/30 11:03:08;;;;;;;18.65;4.88;;;;;;;;;;6248753;22;20011;-83
2022/01/30 11:06:14;;;;;;;22.48;4.78;;;;;;;;;;6226627;22;20041;-83
2022/01/30 11:08:44;;;;;;;22.30;5.20;;;;;;;;;;6159048;23;20433;-83
2022/01/30 11:11:26;;;;;;;25.52;4.53;;;;;;;;;;6181773;23;20234;-83
2022/01/30 11:14:13;;;;;;;28.38;5.75;;;;;;;;;;6192489;22;20020;-83
2022/01/30 11:16:56;;;;;;;23.00;4.72;;;;;;;;;;6229141;22;20484;-83
2022/01/30 11:19:23;;;;;;;21.05;4.57;;;;;;;;;;6253028;22;20079;-83
2022/01/30 11:21:51;;;;;;;26.10;4.70;;;;;;;;;;6246627;22;20020;-83
2022/01/30 11:24:19;;;;;;;36.65;5.70;;;;;;;;;;6223289;22;20026;-83
2022/01/30 11:26:45;;;;;;;24.15;5.28;;;;;;;;;;6222143;22;20028;-83
2022/01/30 11:29:13;;;;;;;28.05;5.45;;;;;;;;;;6223714;22;20027;-84
2022/01/30 11:31:39;;;;;;;25.17;5.50;;;;;;;;;;6248161;22;20031;-84
2022/01/30 11:34:05;;;;;;;23.90;5.40;;;;;;;;;;6249278;22;20089;-84
2022/01/30 11:36:32;;;;;;;32.55;6.57;;;;;;;;;;6221713;22;20016;-83
2022/01/30 11:38:58;;;;;;;23.63;4.32;;;;;;;;;;6224123;22;20008;-83
2022/01/30 11:41:24;;;;;;;22.52;5.53;;;;;;;;;;6222632;22;20023;-83
2022/01/30 11:44:17;;;;;;;27.00;5.25;;;;;;;;;;6223282;22;20070;-83
2022/01/30 11:46:44;;;;;;;25.92;5.82;;;;;;;;;;6246949;22;20461;-83
2022/01/30 11:49:14;;;;;;;21.17;4.75;;;;;;;;;;6248298;22;20357;-83
2022/01/30 11:51:50;;;;;;;28.30;6.25;;;;;;;;;;6246673;22;20016;-83
2022/01/30 11:54:38;;;;;;;28.95;5.97;;;;;;;;;;6221363;22;20027;-83
2022/01/30 11:57:25;;;;;;;22.13;6.05;;;;;;;;;;6273577;22;20087;-83
2022/01/30 11:59:55;;;;;;;25.38;5.40;;;;;;;;;;6246846;22;20031;-83
2022/01/30 12:02:33;;;;;;;31.45;6.80;;;;;;;;;;6221326;22;20353;-83
2022/01/30 12:05:07;;;;;;;30.58;5.20;;;;;;;;;;6247485;22;20026;-83
2022/01/30 12:07:35;;;;;;;28.02;5.15;;;;;;;;;;6222070;22;20343;-83
2022/01/30 12:10:16;;;;;;;28.55;5.35;;;;;;;;;;6221731;22;20027;-83
2022/01/30 12:12:53;;;;;;;29.48;5.80;;;;;;;;;;6245615;22;20023;-84
2022/01/30 12:15:40;;;;;;;20.80;4.93;;;;;;;;;;6219663;22;20016;-84
2022/01/30 12:18:19;;;;;;;31.35;5.32;;;;;;;;;;6246486;22;20073;-84
2022/01/30 12:20:59;;;;;;;28.58;5.95;;;;;;;;;;6223494;22;20081;-84
2022/01/30 12:23:34;;;;;;;29.40;5.57;;;;;;;;;;6220404;22;20519;-84
2022/01/30 12:26:06;;;;;;;31.57;5.60;;;;;;;;;;6220014;22;20020;-84
2022/01/30 12:28:52;;;;;;;33.20;5.47;;;;;;;;;;6222280;22;20245;-84
2022/01/30 12:31:38;;;;;;;38.08;6.18;;;;;;;;;;6247534;22;20103;-84
2022/01/30 12:34:10;;;;;;;28.40;5.10;;;;;;;;;;6221443;22;20039;-84
2022/01/30 12:36:38;;;;;;;31.15;5.88;;;;;;;;;;6246539;22;20095;-83
2022/01/30 12:39:10;;;;;;;26.27;5.07;;;;;;;;;;6222057;22;20091;-84
2022/01/30 12:41:37;;;;;;;24.75;4.63;;;;;;;;;;6220108;22;20016;-83
2022/01/30 12:44:11;;;;;;;34.80;6.78;;;;;;;;;;6219776;22;20020;-84
2022/01/30 12:46:45;;;;;;;29.92;6.43;;;;;;;;;;6243181;22;20170;-84
2022/01/30 12:49:21;;;;;;;29.98;6.43;;;;;;;;;;6219747;22;20035;-84
2022/01/30 12:51:53;;;;;;;29.00;5.72;;;;;;;;;;6243491;22;20038;-83
2022/01/30 12:54:21;;;;;;;26.60;4.88;;;;;;;;;;6219425;22;20465;-84
2022/01/30 12:56:48;;;;;;;26.77;6.40;;;;;;;;;;6218735;22;20015;-83
2022/01/30 12:59:16;;;;;;;29.02;6.03;;;;;;;;;;6220776;22;20027;-83
2022/01/30 13:01:43;;;;;;;37.53;6.22;;;;;;;;;;6219810;22;20015;-84
2022/01/30 13:04:14;;;;;;;29.83;5.53;;;;;;;;;;6244463;22;20020;-84
2022/01/30 13:06:45;;;;;;;32.42;5.85;;;;;;;;;;6246039;22;20358;-83
2022/01/30 13:09:11;;;;;;;28.05;6.05;;;;;;;;;;6218666;22;20071;-83
2022/01/30 13:11:38;;;;;;;26.33;6.10;;;;;;;;;;6218146;22;20523;-82
2022/01/30 13:14:08;;;;;;;29.05;6.10;;;;;;;;;;6244708;22;20012;-82
2022/01/30 13:16:42;;;;;;;27.65;6.07;;;;;;;;;;6242710;22;20016;-82
2022/01/30 13:19:13;;;;;;;31.35;6.38;;;;;;;;;;6242614;22;20016;-84
2022/01/30 13:21:45;;;;;;;34.90;6.60;;;;;;;;;;6217817;22;20015;-83
2022/01/30 13:24:11;;;;;;;27.73;5.95;;;;;;;;;;6218765;22;20094;-83
2022/01/30 13:26:39;;;;;;;35.65;8.57;;;;;;;;;;6218729;22;20046;-84
2022/01/30 13:29:10;;;;;;;32.20;5.38;;;;;;;;;;6245617;22;20069;-83
2022/01/30 13:31:37;;;;;;;25.75;6.70;;;;;;;;;;6218231;22;20353;-83
2022/01/30 13:34:16;;;;;;;22.52;6.72;;;;;;;;;;6245819;22;20453;-83
2022/01/30 13:36:43;;;;;;;26.83;6.28;;;;;;;;;;6245270;22;20086;-83
2022/01/30 13:39:15;;;;;;;19.33;4.63;;;;;;;;;;6218856;22;20043;-83
2022/01/30 13:41:50;;;;;;;33.00;6.65;;;;;;;;;;6220782;22;20020;-83
2022/01/30 13:44:26;;;;;;;35.33;7.85;;;;;;;;;;6247995;22;20024;-83
2022/01/30 13:46:57;;;;;;;35.55;6.40;;;;;;;;;;6222088;22;20019;-83
2022/01/30 13:49:24;;;;;;;29.42;6.57;;;;;;;;;;6221555;22;20338;-84
2022/01/30 13:52:07;;;;;;;28.23;5.53;;;;;;;;;;6245988;22;20015;-83
2022/01/30 13:54:33;;;;;;;36.25;6.20;;;;;;;;;;6246066;22;20023;-83
2022/01/30 13:57:07;;;;;;;37.70;7.13;;;;;;;;;;6223248;22;20081;-83
2022/01/30 13:59:34;;;;;;;33.70;5.68;;;;;;;;;;6219650;22;20465;-83
2022/01/30 14:02:04;;;;;;;28.85;5.88;;;;;;;;;;6219127;22;20023;-84
2022/01/30 14:04:31;;;;;;;33.17;6.25;;;;;;;;;;6221199;22;20122;-83
2022/01/30 14:07:00;;;;;;;32.13;6.38;;;;;;;;;;6218610;22;20291;-83
2022/01/30 14:09:36;;;;;;;32.40;6.07;;;;;;;;;;6245718;22;20501;-83
2022/01/30 14:12:07;;;;;;;31.17;6.03;;;;;;;;;;6220562;22;20037;-84
2022/01/30 14:14:36;;;;;;;35.00;6.30;;;;;;;;;;6219604;22;20041;-84
2022/01/30 14:17:04;;;;;;;25.75;5.65;;;;;;;;;;6244846;22;20023;-84
2022/01/30 14:19:38;;;;;;;30.85;5.78;;;;;;;;;;6217585;22;20102;-84
2022/01/30 14:22:19;;;;;;;28.13;5.35;;;;;;;;;;6220699;22;20061;-85
2022/01/30 14:24:54;;;;;;;35.70;6.25;;;;;;;;;;6219945;22;20012;-84
2022/01/30 14:27:20;;;;;;;28.88;4.95;;;;;;;;;;6219053;22;20015;-84
2022/01/30 14:29:47;;;;;;;27.92;5.78;;;;;;;;;;6218352;22;20459;-84
2022/01/30 14:32:14;;;;;;;29.38;6.32;;;;;;;;;;6216974;22;20396;-84
2022/01/30 14:34:41;;;;;;;26.00;5.68;;;;;;;;;;6219228;22;20015;-84
2022/01/30 14:37:09;;;;;;;28.80;5.57;;;;;;;;;;6219001;22;20019;-84
2022/01/30 14:39:36;;;;;;;26.45;5.65;;;;;;;;;;6219964;22;20415;-84
2022/01/30 14:42:04;;;;;;;35.35;6.50;;;;;;;;;;6217815;22;20511;-84
2022/01/30 14:44:30;;;;;;;26.17;5.80;;;;;;;;;;6218729;22;20035;-85
2022/01/30 14:46:55;;;;;;;26.50;5.95;;;;;;;;;;6219756;22;20353;-84
2022/01/30 14:49:21;;;;;;;29.75;5.38;;;;;;;;;;6219799;22;20042;-84
2022/01/30 14:51:48;;;;;;;30.98;6.60;;;;;;;;;;6244250;22;20043;-83
2022/01/30 14:54:14;;;;;;;21.38;5.18;;;;;;;;;;6219438;22;20410;-84
2022/01/30 14:56:40;;;;;;;32.80;6.65;;;;;;;;;;6244784;22;20095;-84
2022/01/30 14:59:06;;;;;;;30.35;6.65;;;;;;;;;;6218528;22;20012;-84
2022/01/30 15:01:33;;;;;;;28.60;5.70;;;;;;;;;;6217718;22;20077;-84
2022/01/30 15:03:59;;;;;;;31.48;6.25;;;;;;;;;;6218130;22;20038;-84
2022/01/30 15:06:25;;;;;;;30.73;5.32;;;;;;;;;;6217900;22;20110;-83
2022/01/30 15:08:50;;;;;;;31.88;6.72;;;;;;;;;;6244364;22;20015;-85
2022/01/30 15:11:16;;;;;;;29.20;6.45;;;;;;;;;;6244007;22;20046;-85
2022/01/30 15:13:43;;;;;;;28.60;6.95;;;;;;;;;;6218809;22;20480;-84